Time;durP1;ratioP1;P1;durP2;ratioP2;P2;SDS_P1;SDS_P2;PMS_P1;PMS_P2;Temp;Humidity;BMP_temperature;BMP_pressure;BME280_temperature;BME280_humidity;BME280_pressure;Samples;Min_cycle;Max_cycle;Signal;HPM_P1;HPM_P2
2023/10/27 00:01:44;;;;;;;12.93;7.33;;;;;;;;;;5090225;28;20043;-69
2023/10/27 00:04:10;;;;;;;10.00;5.40;;;;;;;;;;5090631;28;20074;-68
2023/10/27 00:06:35;;;;;;;8.50;5.00;;;;;;;;;;5090493;28;20348;-68
2023/10/27 00:09:02;;;;;;;15.57;7.13;;;;;;;;;;5056667;28;20050;-68
2023/10/27 00:11:28;;;;;;;10.10;5.63;;;;;;;;;;5091439;28;20047;-68
2023/10/27 00:13:54;;;;;;;6.53;4.43;;;;;;;;;;5073721;28;20093;-68
2023/10/27 00:16:20;;;;;;;6.40;3.83;;;;;;;;;;5090358;28;20131;-68
2023/10/27 00:18:45;;;;;;;6.13;4.50;;;;;;;;;;5090347;28;20036;-68
2023/10/27 00:21:11;;;;;;;6.33;4.23;;;;;;;;;;5090371;28;20192;-67
2023/10/27 00:23:37;;;;;;;8.73;4.57;;;;;;;;;;5073354;28;20046;-67
2023/10/27 00:26:02;;;;;;;8.13;3.87;;;;;;;;;;5090100;28;20358;-68
2023/10/27 00:28:29;;;;;;;7.10;4.53;;;;;;;;;;5073738;28;20032;-67
2023/10/27 00:30:55;;;;;;;8.87;4.60;;;;;;;;;;5056816;28;20510;-67
2023/10/27 00:33:21;;;;;;;8.23;4.93;;;;;;;;;;5094065;28;20028;-67
2023/10/27 00:35:50;;;;;;;5.43;4.00;;;;;;;;;;5077018;28;20032;-67
2023/10/27 00:38:16;;;;;;;11.93;5.43;;;;;;;;;;5094824;28;20066;-67
2023/10/27 00:40:42;;;;;;;10.30;5.17;;;;;;;;;;5076788;28;20075;-68
2023/10/27 00:43:08;;;;;;;5.10;3.13;;;;;;;;;;5093826;28;20454;-69
2023/10/27 00:45:33;;;;;;;7.97;4.37;;;;;;;;;;5094725;28;20086;-69
2023/10/27 00:47:59;;;;;;;6.63;4.70;;;;;;;;;;5077023;28;20035;-68
2023/10/27 00:50:25;;;;;;;8.83;4.90;;;;;;;;;;5093791;28;20044;-68
2023/10/27 00:52:52;;;;;;;10.83;6.50;;;;;;;;;;5093694;28;20032;-66
2023/10/27 00:55:17;;;;;;;4.00;2.77;;;;;;;;;;5076732;28;20081;-67
2023/10/27 00:57:46;;;;;;;6.57;3.93;;;;;;;;;;5093653;28;20032;-68
2023/10/27 01:00:14;;;;;;;11.83;5.50;;;;;;;;;;5093569;28;20044;-68
2023/10/27 01:02:40;;;;;;;4.63;3.43;;;;;;;;;;5093312;28;20385;-68
2023/10/27 01:05:06;;;;;;;7.00;4.60;;;;;;;;;;5093301;28;20056;-70
2023/10/27 01:07:32;;;;;;;6.70;4.47;;;;;;;;;;5076509;28;20147;-70
2023/10/27 01:09:58;;;;;;;5.10;3.47;;;;;;;;;;5093339;28;20134;-68
2023/10/27 01:12:24;;;;;;;10.87;6.30;;;;;;;;;;5093789;28;20047;-68
2023/10/27 01:14:51;;;;;;;4.53;2.67;;;;;;;;;;5093278;28;20115;-68
2023/10/27 01:17:16;;;;;;;8.70;5.23;;;;;;;;;;5092518;28;20158;-68
2023/10/27 01:19:42;;;;;;;6.87;4.53;;;;;;;;;;5091585;28;20119;-68
2023/10/27 01:22:09;;;;;;;5.00;3.57;;;;;;;;;;5074279;28;20036;-69
2023/10/27 01:24:34;;;;;;;9.27;5.80;;;;;;;;;;5091848;28;20054;-69
2023/10/27 01:27:01;;;;;;;6.27;3.80;;;;;;;;;;5074181;28;20040;-68
2023/10/27 01:29:28;;;;;;;14.13;7.20;;;;;;;;;;5074319;28;20127;-68
2023/10/27 01:31:54;;;;;;;11.47;5.77;;;;;;;;;;5091922;28;20142;-67
2023/10/27 01:34:20;;;;;;;10.87;4.67;;;;;;;;;;5057513;28;20192;-67
2023/10/27 01:36:45;;;;;;;10.03;6.23;;;;;;;;;;5092691;28;20115;-67
2023/10/27 01:39:12;;;;;;;5.60;3.67;;;;;;;;;;5092482;28;20032;-68
2023/10/27 01:41:38;;;;;;;3.97;2.87;;;;;;;;;;5075960;28;20032;-67
2023/10/27 01:44:05;;;;;;;7.73;4.87;;;;;;;;;;5092848;28;20032;-69
2023/10/27 01:46:30;;;;;;;6.67;4.33;;;;;;;;;;5092725;28;20074;-67
2023/10/27 01:48:56;;;;;;;7.47;4.73;;;;;;;;;;5093286;28;20132;-67
2023/10/27 01:51:21;;;;;;;3.67;3.13;;;;;;;;;;5075815;28;20040;-67
2023/10/27 01:53:47;;;;;;;6.10;4.03;;;;;;;;;;5093843;28;20438;-67
2023/10/27 01:56:13;;;;;;;9.53;4.50;;;;;;;;;;5094172;28;20047;-67
2023/10/27 01:58:44;;;;;;;9.93;4.30;;;;;;;;;;5094196;28;20032;-69
2023/10/27 02:01:10;;;;;;;10.45;5.60;;;;;;;;;;5075480;28;20032;-68
2023/10/27 02:03:35;;;;;;;4.77;3.53;;;;;;;;;;5075541;28;20042;-69
2023/10/27 02:06:01;;;;;;;6.97;4.17;;;;;;;;;;5092674;28;20058;-67
2023/10/27 02:08:26;;;;;;;8.80;4.67;;;;;;;;;;5093239;28;20082;-68
2023/10/27 02:10:52;;;;;;;5.53;2.50;;;;;;;;;;5091968;28;20040;-67
2023/10/27 02:13:18;;;;;;;5.33;2.87;;;;;;;;;;5058438;28;20044;-67
2023/10/27 02:15:44;;;;;;;5.10;3.20;;;;;;;;;;5075125;28;20036;-67
2023/10/27 02:18:10;;;;;;;7.70;4.60;;;;;;;;;;5092035;28;20057;-67
2023/10/27 02:20:35;;;;;;;4.00;2.80;;;;;;;;;;5093046;28;20068;-68
2023/10/27 02:23:01;;;;;;;9.67;4.50;;;;;;;;;;5075290;28;20122;-67
2023/10/27 02:25:27;;;;;;;6.63;4.60;;;;;;;;;;5092744;28;20026;-67
2023/10/27 02:27:53;;;;;;;8.63;4.97;;;;;;;;;;5092321;28;20113;-67
2023/10/27 02:30:18;;;;;;;7.00;4.13;;;;;;;;;;5091782;28;20040;-67
2023/10/27 02:32:44;;;;;;;8.93;5.60;;;;;;;;;;5091586;28;20377;-69
2023/10/27 02:35:09;;;;;;;7.93;4.50;;;;;;;;;;5074754;28;20039;-69
2023/10/27 02:37:35;;;;;;;8.23;4.23;;;;;;;;;;5091931;28;20044;-70
2023/10/27 02:40:01;;;;;;;17.00;7.47;;;;;;;;;;5091288;28;20141;-69
2023/10/27 02:42:30;;;;;;;3.87;2.90;;;;;;;;;;5075088;28;20382;-69
2023/10/27 02:44:56;;;;;;;6.80;3.70;;;;;;;;;;5074540;28;20028;-69
2023/10/27 02:47:21;;;;;;;7.70;4.27;;;;;;;;;;5091181;28;20063;-68
2023/10/27 02:49:47;;;;;;;7.93;5.13;;;;;;;;;;5074223;28;20086;-69
2023/10/27 02:52:12;;;;;;;5.97;3.57;;;;;;;;;;5091389;28;20036;-68
2023/10/27 02:54:38;;;;;;;8.47;4.53;;;;;;;;;;5074337;28;20458;-72
2023/10/27 02:57:04;;;;;;;3.50;2.50;;;;;;;;;;5074737;28;20047;-68
2023/10/27 02:59:30;;;;;;;9.77;5.37;;;;;;;;;;5089860;28;20036;-70
2023/10/27 03:01:55;;;;;;;6.80;4.20;;;;;;;;;;5091835;28;20542;-69
2023/10/27 03:04:21;;;;;;;3.63;2.63;;;;;;;;;;5091011;28;20052;-69
2023/10/27 03:06:46;;;;;;;8.23;5.57;;;;;;;;;;5091949;28;20466;-69
2023/10/27 03:09:12;;;;;;;8.67;5.10;;;;;;;;;;5092054;28;20316;-68
2023/10/27 03:11:38;;;;;;;6.87;4.00;;;;;;;;;;5090723;28;20063;-70
2023/10/27 03:14:04;;;;;;;3.40;2.50;;;;;;;;;;5074314;28;20038;-69
2023/10/27 03:16:29;;;;;;;3.90;2.90;;;;;;;;;;5091313;28;20135;-69
2023/10/27 03:18:55;;;;;;;9.37;5.37;;;;;;;;;;5074429;28;20149;-69
2023/10/27 03:21:22;;;;;;;2.80;2.30;;;;;;;;;;5057692;28;20469;-69
2023/10/27 03:23:48;;;;;;;5.53;2.63;;;;;;;;;;5058659;28;20032;-69
2023/10/27 03:26:16;;;;;;;3.57;2.43;;;;;;;;;;5100206;28;20477;-69
2023/10/27 03:28:42;;;;;;;3.00;2.47;;;;;;;;;;5069831;28;20093;-69
2023/10/27 03:31:12;;;;;;;4.37;3.20;;;;;;;;;;5088757;28;20032;-69
2023/10/27 03:33:39;;;;;;;6.10;3.30;;;;;;;;;;5091760;28;20449;-68
2023/10/27 03:36:05;;;;;;;3.67;2.40;;;;;;;;;;5092934;28;20053;-69
2023/10/27 03:38:31;;;;;;;4.27;3.13;;;;;;;;;;5091620;28;20046;-68
2023/10/27 03:40:58;;;;;;;5.90;2.83;;;;;;;;;;5090316;28;20142;-68
2023/10/27 03:43:23;;;;;;;6.77;4.50;;;;;;;;;;5073320;28;20135;-66
2023/10/27 03:45:49;;;;;;;4.80;3.10;;;;;;;;;;5090494;28;20130;-66
2023/10/27 03:48:16;;;;;;;4.27;3.40;;;;;;;;;;5090698;28;20059;-66
2023/10/27 03:50:42;;;;;;;6.03;3.67;;;;;;;;;;5081132;28;20482;-70
2023/10/27 03:53:08;;;;;;;10.00;5.20;;;;;;;;;;5100914;28;20038;-68
2023/10/27 03:55:34;;;;;;;10.97;6.07;;;;;;;;;;5070060;28;20122;-69
2023/10/27 03:58:13;;;;;;;7.23;3.80;;;;;;;;;;5062275;28;20074;-68
2023/10/27 04:00:39;;;;;;;4.43;2.97;;;;;;;;;;5040084;28;20367;-69
2023/10/27 04:03:05;;;;;;;2.97;2.43;;;;;;;;;;5068701;28;20024;-69
2023/10/27 04:05:30;;;;;;;4.03;3.00;;;;;;;;;;5093176;28;20078;-69
2023/10/27 04:07:56;;;;;;;9.17;4.53;;;;;;;;;;5113908;28;20047;-69
2023/10/27 04:10:22;;;;;;;3.37;2.60;;;;;;;;;;5111373;28;20489;-71
2023/10/27 04:12:47;;;;;;;3.17;2.37;;;;;;;;;;5105684;28;20473;-70
2023/10/27 04:15:13;;;;;;;1.93;1.73;;;;;;;;;;5109562;28;20461;-67
2023/10/27 04:17:38;;;;;;;4.73;3.77;;;;;;;;;;5081795;28;20127;-72
2023/10/27 04:20:05;;;;;;;6.57;3.47;;;;;;;;;;5097616;28;20037;-71
2023/10/27 04:22:30;;;;;;;6.80;3.87;;;;;;;;;;5097525;28;20544;-71
2023/10/27 04:24:56;;;;;;;7.70;4.80;;;;;;;;;;5114557;28;20126;-66
2023/10/27 04:27:22;;;;;;;5.33;3.77;;;;;;;;;;5103735;28;20101;-71
2023/10/27 04:29:50;;;;;;;5.57;3.60;;;;;;;;;;5077284;28;20470;-74
2023/10/27 04:32:15;;;;;;;4.27;3.13;;;;;;;;;;5084643;28;20055;-71
2023/10/27 04:34:43;;;;;;;2.97;2.50;;;;;;;;;;5079898;28;20426;-71
2023/10/27 04:37:09;;;;;;;5.80;3.27;;;;;;;;;;5103741;28;20050;-75
2023/10/27 04:39:35;;;;;;;4.43;3.30;;;;;;;;;;5093867;28;20183;-71
2023/10/27 04:42:01;;;;;;;3.23;2.37;;;;;;;;;;5077055;28;20040;-74
2023/10/27 04:44:27;;;;;;;5.33;2.87;;;;;;;;;;5077095;28;20062;-74
2023/10/27 04:46:52;;;;;;;8.37;4.17;;;;;;;;;;5059868;28;20043;-72
2023/10/27 04:49:18;;;;;;;10.37;4.07;;;;;;;;;;5102582;28;20124;-74
2023/10/27 04:51:44;;;;;;;4.83;3.00;;;;;;;;;;5087479;28;20059;-74
2023/10/27 04:54:10;;;;;;;3.60;2.90;;;;;;;;;;5075109;28;20039;-72
2023/10/27 04:56:37;;;;;;;2.60;2.27;;;;;;;;;;5076237;28;20031;-73
2023/10/27 04:59:03;;;;;;;2.30;1.80;;;;;;;;;;5091576;28;20024;-76
2023/10/27 05:01:29;;;;;;;4.23;2.73;;;;;;;;;;5059015;28;20038;-74
2023/10/27 05:03:54;;;;;;;1.47;1.37;;;;;;;;;;5075509;28;20138;-74
2023/10/27 05:06:21;;;;;;;1.47;1.37;;;;;;;;;;5092227;28;20105;-74
2023/10/27 05:08:47;;;;;;;4.60;2.70;;;;;;;;;;5092572;28;20044;-73
2023/10/27 05:11:13;;;;;;;3.10;2.37;;;;;;;;;;5089902;28;20367;-74
2023/10/27 05:13:39;;;;;;;2.57;2.17;;;;;;;;;;5090797;28;20056;-75
2023/10/27 05:16:05;;;;;;;6.97;4.17;;;;;;;;;;5059527;28;20028;-74
2023/10/27 05:18:31;;;;;;;2.60;2.30;;;;;;;;;;5089598;28;20032;-73
2023/10/27 05:20:58;;;;;;;1.60;1.50;;;;;;;;;;5092058;28;20036;-73
2023/10/27 05:23:24;;;;;;;2.40;2.17;;;;;;;;;;5075825;28;20032;-72
2023/10/27 05:25:52;;;;;;;5.13;3.67;;;;;;;;;;5076113;28;20058;-73
2023/10/27 05:28:18;;;;;;;3.70;2.77;;;;;;;;;;5094236;28;20462;-73
2023/10/27 05:30:46;;;;;;;3.70;2.70;;;;;;;;;;5092779;28;20111;-72
2023/10/27 05:33:13;;;;;;;4.60;2.43;;;;;;;;;;5092306;28;20032;-72
2023/10/27 05:35:38;;;;;;;3.23;2.87;;;;;;;;;;5091389;28;20040;-74
2023/10/27 05:38:04;;;;;;;3.97;2.90;;;;;;;;;;5074593;28;20131;-74
2023/10/27 05:40:31;;;;;;;2.33;1.90;;;;;;;;;;5058173;28;20028;-74
2023/10/27 05:42:57;;;;;;;3.70;2.63;;;;;;;;;;5074977;28;20125;-73
2023/10/27 05:45:23;;;;;;;5.80;3.27;;;;;;;;;;5074986;28;20075;-74
2023/10/27 05:47:54;;;;;;;3.20;2.60;;;;;;;;;;5074889;28;20394;-74
2023/10/27 05:50:21;;;;;;;2.63;2.20;;;;;;;;;;5074747;28;20178;-74
2023/10/27 05:52:47;;;;;;;1.97;1.47;;;;;;;;;;5091713;28;20465;-73
2023/10/27 05:55:13;;;;;;;4.17;2.70;;;;;;;;;;5091853;28;20035;-73
2023/10/27 05:57:41;;;;;;;2.50;2.27;;;;;;;;;;5074391;28;20027;-74
2023/10/27 06:00:10;;;;;;;4.77;3.53;;;;;;;;;;5091139;28;20040;-73
2023/10/27 06:02:36;;;;;;;5.00;3.03;;;;;;;;;;5058251;28;20416;-74
2023/10/27 06:05:01;;;;;;;2.53;1.97;;;;;;;;;;5091660;28;20060;-76
2023/10/27 06:07:30;;;;;;;2.27;1.73;;;;;;;;;;5091443;28;20062;-75
2023/10/27 06:09:56;;;;;;;2.53;2.20;;;;;;;;;;5074463;28;20039;-72
2023/10/27 06:12:23;;;;;;;3.37;3.03;;;;;;;;;;5073843;28;20067;-72
2023/10/27 06:14:49;;;;;;;1.73;1.60;;;;;;;;;;5074563;28;20036;-73
2023/10/27 06:17:15;;;;;;;1.20;1.10;;;;;;;;;;5091002;28;20494;-73
2023/10/27 06:19:41;;;;;;;3.30;2.33;;;;;;;;;;5091246;28;20089;-73
2023/10/27 06:22:08;;;;;;;3.63;2.87;;;;;;;;;;5091309;28;20032;-72
2023/10/27 06:24:34;;;;;;;2.40;2.17;;;;;;;;;;5057499;28;20032;-74
2023/10/27 06:27:01;;;;;;;5.07;3.90;;;;;;;;;;5074039;28;20139;-73
2023/10/27 06:29:27;;;;;;;4.00;2.60;;;;;;;;;;5073668;28;20139;-72
2023/10/27 06:31:53;;;;;;;1.93;1.60;;;;;;;;;;5091039;28;20089;-72
2023/10/27 06:34:18;;;;;;;3.70;3.00;;;;;;;;;;5009838;28;20050;-73
2023/10/27 06:36:44;;;;;;;2.40;2.20;;;;;;;;;;4961774;28;20042;-72
2023/10/27 06:39:10;;;;;;;2.60;2.10;;;;;;;;;;4961141;28;20041;-73
2023/10/27 06:41:37;;;;;;;4.37;3.33;;;;;;;;;;4977440;28;20040;-72
2023/10/27 06:44:04;;;;;;;6.43;2.97;;;;;;;;;;4977508;28;20088;-71
2023/10/27 06:46:31;;;;;;;3.73;2.80;;;;;;;;;;4960972;28;20053;-72
2023/10/27 06:48:56;;;;;;;2.70;2.40;;;;;;;;;;4977321;28;20048;-71
2023/10/27 06:51:22;;;;;;;6.00;4.57;;;;;;;;;;4993154;28;20080;-71
2023/10/27 06:53:48;;;;;;;4.70;3.77;;;;;;;;;;4992846;28;20046;-71
2023/10/27 06:56:15;;;;;;;3.03;2.30;;;;;;;;;;4993219;28;20094;-72
2023/10/27 06:58:40;;;;;;;6.60;4.80;;;;;;;;;;5009527;28;20136;-72
2023/10/27 07:01:07;;;;;;;2.20;1.93;;;;;;;;;;4960881;28;20381;-72
2023/10/27 07:03:35;;;;;;;3.17;2.50;;;;;;;;;;4992717;28;20038;-72
2023/10/27 07:06:01;;;;;;;4.70;3.77;;;;;;;;;;5008240;28;20078;-72
2023/10/27 07:08:28;;;;;;;3.23;2.10;;;;;;;;;;5048877;28;20049;-72
2023/10/27 07:10:57;;;;;;;4.37;3.30;;;;;;;;;;5038782;28;20138;-73
2023/10/27 07:13:24;;;;;;;4.60;3.20;;;;;;;;;;5072846;28;20123;-73
2023/10/27 07:15:49;;;;;;;3.93;2.83;;;;;;;;;;5090224;28;20024;-77
2023/10/27 07:18:15;;;;;;;4.70;3.37;;;;;;;;;;5074157;28;20047;-74
2023/10/27 07:20:41;;;;;;;2.30;2.10;;;;;;;;;;5074050;28;20039;-74
2023/10/27 07:23:07;;;;;;;3.43;2.87;;;;;;;;;;5091192;28;20533;-78
2023/10/27 07:25:32;;;;;;;5.37;3.60;;;;;;;;;;5091767;28;20036;-69
2023/10/27 07:27:58;;;;;;;5.37;3.93;;;;;;;;;;5090763;28;20082;-73
2023/10/27 07:30:24;;;;;;;3.50;2.77;;;;;;;;;;5091456;28;20086;-74
2023/10/27 07:32:49;;;;;;;5.27;3.73;;;;;;;;;;5057652;28;20032;-74
2023/10/27 07:35:15;;;;;;;2.37;2.13;;;;;;;;;;5089952;28;20035;-74
2023/10/27 07:37:40;;;;;;;5.23;3.67;;;;;;;;;;5072889;28;20164;-75
2023/10/27 07:40:06;;;;;;;4.87;3.60;;;;;;;;;;5056101;28;20036;-75
2023/10/27 07:42:33;;;;;;;4.63;3.30;;;;;;;;;;5055719;28;20040;-76
2023/10/27 07:44:59;;;;;;;3.43;2.47;;;;;;;;;;5056340;28;20407;-74
2023/10/27 07:47:25;;;;;;;4.13;2.70;;;;;;;;;;5056278;28;20486;-77
2023/10/27 07:49:51;;;;;;;3.33;2.70;;;;;;;;;;5072779;28;20035;-76
2023/10/27 07:52:17;;;;;;;3.67;1.97;;;;;;;;;;5056808;28;20044;-76
2023/10/27 07:54:43;;;;;;;3.30;2.67;;;;;;;;;;5090262;28;20076;-74
2023/10/27 07:57:08;;;;;;;4.40;2.83;;;;;;;;;;5056569;28;20117;-75
2023/10/27 07:59:34;;;;;;;3.57;2.97;;;;;;;;;;5072783;28;20158;-76
2023/10/27 08:02:00;;;;;;;2.97;2.40;;;;;;;;;;5015331;28;20092;-76
2023/10/27 08:04:26;;;;;;;4.03;3.53;;;;;;;;;;4999259;28;20103;-73
2023/10/27 08:06:52;;;;;;;7.57;3.90;;;;;;;;;;5032037;28;20045;-73
2023/10/27 08:09:19;;;;;;;4.30;3.30;;;;;;;;;;5032114;28;20040;-73
2023/10/27 08:11:49;;;;;;;7.33;3.83;;;;;;;;;;4998019;28;20467;-74
2023/10/27 08:14:15;;;;;;;8.17;4.37;;;;;;;;;;4992258;28;20041;-77
2023/10/27 08:16:41;;;;;;;4.40;3.17;;;;;;;;;;4960095;28;20506;-73
2023/10/27 08:19:06;;;;;;;3.40;2.20;;;;;;;;;;4959878;28;20144;-74
2023/10/27 08:21:32;;;;;;;3.07;2.60;;;;;;;;;;4992289;28;20176;-74
2023/10/27 08:23:58;;;;;;;6.27;3.97;;;;;;;;;;4960062;28;20164;-75
2023/10/27 08:26:24;;;;;;;2.80;1.97;;;;;;;;;;4984467;28;20049;-72
2023/10/27 08:28:51;;;;;;;8.60;4.50;;;;;;;;;;5011639;28;20128;-76
2023/10/27 08:31:16;;;;;;;6.67;3.53;;;;;;;;;;5012331;28;20053;-75
2023/10/27 08:33:42;;;;;;;3.53;2.77;;;;;;;;;;4999439;28;20254;-76
2023/10/27 08:36:10;;;;;;;2.50;2.23;;;;;;;;;;5015181;28;20139;-74
2023/10/27 08:38:35;;;;;;;4.93;3.10;;;;;;;;;;5015104;28;20457;-76
2023/10/27 08:41:01;;;;;;;3.23;2.30;;;;;;;;;;5014639;28;20041;-77
2023/10/27 08:43:28;;;;;;;4.90;2.80;;;;;;;;;;5014738;28;20493;-77
2023/10/27 08:45:54;;;;;;;4.07;2.80;;;;;;;;;;5046653;28;20078;-76
2023/10/27 08:48:19;;;;;;;3.87;3.17;;;;;;;;;;5072758;28;20047;-74
2023/10/27 08:50:46;;;;;;;4.53;3.77;;;;;;;;;;5089862;28;20039;-77
2023/10/27 08:53:14;;;;;;;2.97;2.47;;;;;;;;;;5099027;28;20031;-82
2023/10/27 08:55:58;;;;;;;3.07;2.47;;;;;;;;;;5092210;28;20055;-78
2023/10/27 08:58:24;;;;;;;4.40;3.47;;;;;;;;;;5103023;28;20497;-82
2023/10/27 09:00:50;;;;;;;3.67;2.90;;;;;;;;;;5103913;28;20046;-75
2023/10/27 09:03:16;;;;;;;3.63;2.73;;;;;;;;;;5069500;28;20083;-81
2023/10/27 09:05:42;;;;;;;2.83;2.57;;;;;;;;;;5102246;28;20067;-82
2023/10/27 09:08:08;;;;;;;3.20;2.17;;;;;;;;;;5089184;28;20138;-78
2023/10/27 09:10:34;;;;;;;2.30;2.07;;;;;;;;;;5075305;28;20466;-77
2023/10/27 09:13:00;;;;;;;5.10;3.40;;;;;;;;;;5106697;28;20032;-76
2023/10/27 09:15:39;;;;;;;2.30;1.87;;;;;;;;;;5089512;28;20055;-76
2023/10/27 09:18:05;;;;;;;3.67;2.83;;;;;;;;;;5076659;28;20172;-75
2023/10/27 09:20:31;;;;;;;4.87;3.10;;;;;;;;;;5100887;28;20122;-76
2023/10/27 09:22:56;;;;;;;2.83;2.53;;;;;;;;;;5060125;28;20040;-76
2023/10/27 09:25:26;;;;;;;4.23;3.07;;;;;;;;;;5077221;28;20043;-76
2023/10/27 09:27:54;;;;;;;3.13;2.70;;;;;;;;;;5093633;28;20039;-77
2023/10/27 09:30:27;;;;;;;1.53;1.43;;;;;;;;;;5092745;28;20046;-77
2023/10/27 09:32:54;;;;;;;3.93;2.80;;;;;;;;;;5075694;28;20047;-80
2023/10/27 09:35:19;;;;;;;5.37;3.13;;;;;;;;;;5059065;28;20032;-74
2023/10/27 09:37:48;;;;;;;7.23;1.77;;;;;;;;;;5058972;28;20502;-77
2023/10/27 09:40:18;;;;;;;2.97;2.50;;;;;;;;;;5058729;28;20043;-75
2023/10/27 09:42:54;;;;;;;3.07;2.00;;;;;;;;;;5050688;28;20594;-78
2023/10/27 09:45:22;;;;;;;6.17;3.67;;;;;;;;;;5027201;28;20097;-75
2023/10/27 09:47:49;;;;;;;3.23;2.43;;;;;;;;;;5037809;28;20577;-74
2023/10/27 09:50:17;;;;;;;4.50;3.20;;;;;;;;;;5037870;28;20052;-76
2023/10/27 09:52:45;;;;;;;4.03;3.20;;;;;;;;;;5037379;28;20062;-76
2023/10/27 09:55:14;;;;;;;5.33;3.27;;;;;;;;;;5020639;28;20811;-74
2023/10/27 09:57:41;;;;;;;4.00;3.20;;;;;;;;;;5020406;28;20152;-73
2023/10/27 10:00:08;;;;;;;2.60;1.90;;;;;;;;;;5053882;28;20479;-74
2023/10/27 10:02:38;;;;;;;7.20;3.97;;;;;;;;;;5036506;28;20039;-74
2023/10/27 10:05:08;;;;;;;4.07;2.53;;;;;;;;;;5033767;28;20071;-73
2023/10/27 10:07:35;;;;;;;2.33;2.13;;;;;;;;;;5019702;28;20052;-74
2023/10/27 10:10:19;;;;;;;4.50;3.50;;;;;;;;;;5037098;28;20032;-73
2023/10/27 10:13:09;;;;;;;3.83;3.47;;;;;;;;;;5019756;28;20102;-74
2023/10/27 10:15:39;;;;;;;3.10;2.80;;;;;;;;;;5012841;28;20044;-74
2023/10/27 10:18:08;;;;;;;7.50;4.33;;;;;;;;;;5037085;28;20064;-74
2023/10/27 10:20:56;;;;;;;11.10;6.90;;;;;;;;;;5053695;28;20153;-74
2023/10/27 10:23:24;;;;;;;7.13;4.80;;;;;;;;;;5020558;28;20044;-75
2023/10/27 10:25:57;;;;;;;4.30;3.37;;;;;;;;;;5024308;28;20032;-73
2023/10/27 10:28:27;;;;;;;5.50;3.10;;;;;;;;;;5057527;28;20439;-74
2023/10/27 10:31:13;;;;;;;2.83;2.53;;;;;;;;;;5058040;28;20474;-73
2023/10/27 10:33:40;;;;;;;5.63;3.97;;;;;;;;;;5073886;28;20442;-74
2023/10/27 10:36:20;;;;;;;5.13;3.73;;;;;;;;;;5057551;28;20032;-74
2023/10/27 10:38:57;;;;;;;5.20;3.87;;;;;;;;;;5091448;28;20040;-74
2023/10/27 10:41:43;;;;;;;10.23;3.70;;;;;;;;;;5052870;28;20294;-75
2023/10/27 10:44:17;;;;;;;6.63;3.27;;;;;;;;;;5036458;28;20036;-74
2023/10/27 10:46:44;;;;;;;5.67;4.13;;;;;;;;;;5019493;28;20052;-74
2023/10/27 10:49:22;;;;;;;5.17;3.93;;;;;;;;;;5035836;28;20567;-75
2023/10/27 10:51:53;;;;;;;8.30;5.57;;;;;;;;;;5052891;28;20426;-75
2023/10/27 10:54:20;;;;;;;7.03;4.63;;;;;;;;;;5053149;28;20028;-74
2023/10/27 10:56:46;;;;;;;5.53;3.90;;;;;;;;;;5052791;28;20494;-75
2023/10/27 10:59:21;;;;;;;10.30;5.87;;;;;;;;;;5035501;28;20041;-74
2023/10/27 11:02:06;;;;;;;9.13;6.03;;;;;;;;;;5036320;28;20074;-72
2023/10/27 11:04:57;;;;;;;10.25;5.78;;;;;;;;;;5033576;28;20067;-74
2023/10/27 11:07:23;;;;;;;14.33;5.87;;;;;;;;;;5016420;28;20049;-76
2023/10/27 11:09:48;;;;;;;6.57;3.97;;;;;;;;;;4976902;28;20408;-78
2023/10/27 11:12:25;;;;;;;12.10;5.87;;;;;;;;;;4984351;28;20136;-75
2023/10/27 11:14:52;;;;;;;13.23;6.13;;;;;;;;;;4996803;28;20045;-75
2023/10/27 11:17:17;;;;;;;9.27;4.63;;;;;;;;;;5012412;28;20484;-77
2023/10/27 11:19:55;;;;;;;9.27;4.27;;;;;;;;;;5012712;28;20046;-75
2023/10/27 11:22:24;;;;;;;6.33;4.07;;;;;;;;;;4980944;28;20068;-74
2023/10/27 11:24:59;;;;;;;11.33;5.63;;;;;;;;;;5012888;28;20483;-77
2023/10/27 11:27:26;;;;;;;6.77;3.97;;;;;;;;;;4996303;28;20376;-76
2023/10/27 11:29:57;;;;;;;5.43;3.47;;;;;;;;;;5013442;28;20088;-79
2023/10/27 11:32:24;;;;;;;16.73;6.43;;;;;;;;;;4996469;28;20075;-75
2023/10/27 11:34:56;;;;;;;18.50;6.87;;;;;;;;;;5017345;28;20495;-76
2023/10/27 11:37:30;;;;;;;29.85;8.45;;;;;;;;;;4999657;28;20044;-77
2023/10/27 11:39:57;;;;;;;21.80;6.97;;;;;;;;;;5038558;28;20083;-76
2023/10/27 11:42:23;;;;;;;16.60;5.83;;;;;;;;;;5090483;28;20040;-78
2023/10/27 11:44:50;;;;;;;9.90;4.53;;;;;;;;;;5090405;28;20032;-84
2023/10/27 11:47:17;;;;;;;6.97;3.67;;;;;;;;;;5090070;28;20090;-75
2023/10/27 11:49:43;;;;;;;5.40;3.27;;;;;;;;;;5055703;28;20036;-74
2023/10/27 11:52:10;;;;;;;18.77;7.10;;;;;;;;;;5088793;28;20138;-81
2023/10/27 11:54:37;;;;;;;26.00;8.20;;;;;;;;;;5073307;28;20045;-78
2023/10/27 11:57:04;;;;;;;14.67;5.73;;;;;;;;;;5064764;28;20048;-77
2023/10/27 11:59:30;;;;;;;23.97;8.10;;;;;;;;;;5053531;28;20051;-78
2023/10/27 12:01:58;;;;;;;18.30;6.83;;;;;;;;;;5071727;28;20505;-77
2023/10/27 12:04:24;;;;;;;18.17;6.70;;;;;;;;;;5055045;28;20056;-76
2023/10/27 12:06:53;;;;;;;36.40;8.93;;;;;;;;;;5051925;28;20094;-75
2023/10/27 12:09:50;;;;;;;24.40;7.30;;;;;;;;;;5054851;28;20098;-76
2023/10/27 12:12:18;;;;;;;17.98;6.60;;;;;;;;;;5017649;28;20485;-74
2023/10/27 12:14:47;;;;;;;23.47;7.50;;;;;;;;;;5035022;28;20510;-75
2023/10/27 12:17:12;;;;;;;33.33;8.53;;;;;;;;;;5035234;28;20052;-74
2023/10/27 12:19:39;;;;;;;13.80;4.63;;;;;;;;;;5007299;28;20077;-74
2023/10/27 12:22:05;;;;;;;33.80;8.37;;;;;;;;;;4960263;28;20077;-74
2023/10/27 12:24:33;;;;;;;31.23;6.63;;;;;;;;;;4974819;28;20042;-76
2023/10/27 12:27:01;;;;;;;18.67;3.90;;;;;;;;;;4958953;28;20049;-74
2023/10/27 12:29:27;;;;;;;25.37;7.20;;;;;;;;;;4980508;28;20042;-76
2023/10/27 12:31:55;;;;;;;17.17;5.27;;;;;;;;;;4997801;28;20185;-75
2023/10/27 12:34:21;;;;;;;37.33;7.40;;;;;;;;;;4999463;28;20449;-73
2023/10/27 12:36:50;;;;;;;16.40;3.27;;;;;;;;;;5013870;28;20044;-73
2023/10/27 12:39:17;;;;;;;27.90;6.37;;;;;;;;;;5026799;28;20037;-74
2023/10/27 12:41:48;;;;;;;24.30;5.77;;;;;;;;;;5036243;28;20853;-74
2023/10/27 12:44:14;;;;;;;33.47;6.60;;;;;;;;;;5030132;28;20051;-75
2023/10/27 12:46:40;;;;;;;9.87;4.23;;;;;;;;;;5027673;28;20037;-74
2023/10/27 12:49:07;;;;;;;28.77;7.00;;;;;;;;;;5017325;28;20036;-74
2023/10/27 12:51:33;;;;;;;18.53;5.43;;;;;;;;;;5068663;28;20561;-75
2023/10/27 12:53:58;;;;;;;14.80;6.20;;;;;;;;;;5064265;28;20118;-76
2023/10/27 12:56:25;;;;;;;24.03;5.73;;;;;;;;;;5035301;28;20040;-74
2023/10/27 12:58:50;;;;;;;58.03;10.37;;;;;;;;;;5057949;28;20062;-77
2023/10/27 13:01:16;;;;;;;42.20;7.47;;;;;;;;;;5057938;28;20830;-73
2023/10/27 13:03:42;;;;;;;46.57;8.87;;;;;;;;;;5055735;28;20048;-75
2023/10/27 13:06:13;;;;;;;30.07;7.50;;;;;;;;;;5021660;28;20032;-72
2023/10/27 13:08:39;;;;;;;91.47;16.00;;;;;;;;;;5021557;28;20043;-74
2023/10/27 13:11:06;;;;;;;20.50;6.37;;;;;;;;;;5038269;28;20052;-79
2023/10/27 13:13:35;;;;;;;20.50;7.53;;;;;;;;;;5034067;28;20121;-80
2023/10/27 13:16:01;;;;;;;24.50;7.00;;;;;;;;;;5039714;28;20485;-78
2023/10/27 13:18:27;;;;;;;36.90;7.93;;;;;;;;;;5054854;28;20150;-81
2023/10/27 13:20:53;;;;;;;33.53;7.83;;;;;;;;;;5037169;28;20139;-74
2023/10/27 13:23:23;;;;;;;17.77;4.83;;;;;;;;;;5053887;28;20135;-74
2023/10/27 13:25:49;;;;;;;21.80;5.50;;;;;;;;;;5065986;28;20705;-74
2023/10/27 13:28:17;;;;;;;25.47;7.23;;;;;;;;;;5040945;28;20044;-71
2023/10/27 13:30:46;;;;;;;35.87;9.30;;;;;;;;;;5046265;28;20040;-75
2023/10/27 13:33:12;;;;;;;16.67;4.80;;;;;;;;;;5040484;28;20047;-72
2023/10/27 13:35:38;;;;;;;26.90;6.20;;;;;;;;;;5044423;28;20040;-74
2023/10/27 13:38:06;;;;;;;49.10;9.40;;;;;;;;;;5057594;28;20048;-77
2023/10/27 13:40:36;;;;;;;14.23;3.80;;;;;;;;;;5060876;28;20050;-76
2023/10/27 13:43:03;;;;;;;13.20;3.93;;;;;;;;;;5058137;28;20097;-76
2023/10/27 13:45:29;;;;;;;12.13;4.13;;;;;;;;;;5061550;28;20058;-72
2023/10/27 13:47:55;;;;;;;12.20;4.10;;;;;;;;;;5054224;28;20160;-71
2023/10/27 13:50:23;;;;;;;11.13;4.30;;;;;;;;;;5073662;28;20097;-72
2023/10/27 13:52:51;;;;;;;16.27;5.47;;;;;;;;;;5062069;28;20107;-74
2023/10/27 13:55:17;;;;;;;16.93;5.60;;;;;;;;;;5044923;28;20044;-71
2023/10/27 13:57:43;;;;;;;25.10;6.10;;;;;;;;;;5047982;28;20040;-72
2023/10/27 14:00:11;;;;;;;21.83;5.20;;;;;;;;;;5066044;28;20823;-73
2023/10/27 14:02:41;;;;;;;6.67;2.80;;;;;;;;;;5049709;28;20032;-74
2023/10/27 14:05:09;;;;;;;26.93;6.33;;;;;;;;;;5051086;28;20070;-74
2023/10/27 14:07:34;;;;;;;16.37;4.13;;;;;;;;;;5037327;28;20151;-76
2023/10/27 14:10:03;;;;;;;20.83;4.47;;;;;;;;;;5039614;28;20048;-75
2023/10/27 14:12:31;;;;;;;16.97;5.30;;;;;;;;;;5053623;28;20567;-74
2023/10/27 14:14:58;;;;;;;16.50;3.93;;;;;;;;;;5073674;28;20044;-75
2023/10/27 14:17:29;;;;;;;12.57;3.17;;;;;;;;;;5074400;28;20044;-77
2023/10/27 14:19:55;;;;;;;37.53;8.23;;;;;;;;;;5053881;28;20098;-71
2023/10/27 14:22:21;;;;;;;33.73;5.43;;;;;;;;;;5070475;28;20032;-70
2023/10/27 14:24:48;;;;;;;12.90;4.10;;;;;;;;;;5078384;28;20075;-74
2023/10/27 14:27:30;;;;;;;12.63;4.07;;;;;;;;;;5092670;28;20048;-79
2023/10/27 14:29:56;;;;;;;17.90;4.47;;;;;;;;;;5060687;28;20081;-81
2023/10/27 14:32:24;;;;;;;9.83;2.30;;;;;;;;;;5061554;28;20032;-82
2023/10/27 14:34:50;;;;;;;9.87;2.43;;;;;;;;;;5077366;28;20039;-80
2023/10/27 14:37:19;;;;;;;11.60;3.20;;;;;;;;;;5031978;28;20143;-80
2023/10/27 14:39:45;;;;;;;11.60;3.40;;;;;;;;;;4999095;28;20106;-79